Time;durP1;ratioP1;P1;durP2;ratioP2;P2;SDS_P1;SDS_P2;PMS_P1;PMS_P2;Temp;Humidity;BMP_temperature;BMP_pressure;BME280_temperature;BME280_humidity;BME280_pressure;Samples;Min_cycle;Max_cycle;Signal;HPM_P1;HPM_P2
2023/10/26 00:00:33;;;;;;;1.27;0.73;;;11.40;99.90;;;;;;5033062;28;20017;-88
2023/10/26 00:02:58;;;;;;;1.07;0.50;;;11.40;99.90;;;;;;5032822;28;20025;-88
2023/10/26 00:05:24;;;;;;;1.25;0.50;;;11.40;99.90;;;;;;5030376;28;20028;-87
2023/10/26 00:07:50;;;;;;;1.48;0.57;;;11.40;99.90;;;;;;5032383;28;20068;-88
2023/10/26 00:10:17;;;;;;;1.10;0.70;;;11.40;99.90;;;;;;5036175;28;20063;-88
2023/10/26 00:12:43;;;;;;;2.78;0.75;;;11.40;99.90;;;;;;5041966;28;20504;-90
2023/10/26 00:15:09;;;;;;;0.85;0.60;;;11.40;99.90;;;;;;5055744;22;20055;-89
2023/10/26 00:17:36;;;;;;;0.47;0.47;;;11.40;99.90;;;;;;5036495;28;20114;-89
2023/10/26 00:20:01;;;;;;;0.70;0.57;;;11.40;99.90;;;;;;5009990;28;20050;-87
2023/10/26 00:30:01;;;;;;;2.67;0.50;;;11.40;99.90;;;;;;5287727;22;20479;-87
2023/10/26 00:32:27;;;;;;;1.00;0.70;;;11.40;99.90;;;;;;5017576;28;20049;-88
2023/10/26 00:34:52;;;;;;;1.60;0.90;;;11.50;99.90;;;;;;5013732;28;20120;-88
2023/10/26 00:37:18;;;;;;;1.37;0.57;;;11.50;99.90;;;;;;5019004;28;20026;-87
2023/10/26 00:39:44;;;;;;;2.50;0.73;;;11.60;99.90;;;;;;5031665;22;20037;-89
2023/10/26 00:42:11;;;;;;;1.00;0.50;;;11.60;99.90;;;;;;5047228;28;20400;-88
2023/10/26 00:47:03;;;;;;;1.07;0.70;;;11.60;99.90;;;;;;5019750;22;20046;-88
2023/10/26 00:49:29;;;;;;;0.83;0.50;;;11.60;99.90;;;;;;5016135;28;20030;-87
2023/10/26 00:51:59;;;;;;;1.48;0.60;;;11.70;99.90;;;;;;5014740;28;20514;-88
2023/10/26 00:54:26;;;;;;;2.90;0.67;;;11.70;99.90;;;;;;5017572;28;20024;-87
2023/10/26 00:56:54;;;;;;;0.77;0.67;;;11.70;99.90;;;;;;5017111;28;20100;-88
2023/10/26 00:59:20;;;;;;;1.37;0.63;;;11.70;99.90;;;;;;5011393;28;20030;-85
2023/10/26 01:04:14;;;;;;;1.37;0.60;;;11.80;99.90;;;;;;5108356;22;20492;-88
2023/10/26 01:06:43;;;;;;;0.90;0.60;;;11.80;99.90;;;;;;5017635;28;21414;-88
2023/10/26 01:09:08;;;;;;;0.57;0.50;;;11.80;99.90;;;;;;5022869;28;20116;-88
2023/10/26 01:11:38;;;;;;;0.67;0.47;;;11.80;99.90;;;;;;5026209;28;20101;-86
2023/10/26 01:14:04;;;;;;;1.47;0.60;;;11.70;99.90;;;;;;5021678;28;20040;-88
2023/10/26 01:16:31;;;;;;;1.67;0.80;;;11.70;99.90;;;;;;5024146;28;20554;-88
2023/10/26 01:19:03;;;;;;;0.43;0.40;;;11.60;99.90;;;;;;5023685;28;20037;-87
2023/10/26 01:21:29;;;;;;;0.73;0.60;;;11.50;99.90;;;;;;5093777;22;20050;-88
2023/10/26 01:23:55;;;;;;;0.97;0.60;;;11.40;99.90;;;;;;5024455;28;20042;-89
2023/10/26 01:29:03;;;;;;;1.93;0.60;;;11.30;99.90;;;;;;5156652;22;20157;-88
2023/10/26 01:31:29;;;;;;;0.43;0.40;;;11.30;99.90;;;;;;5017911;28;20029;-88
2023/10/26 01:33:54;;;;;;;1.77;0.57;;;11.20;99.90;;;;;;5014155;28;20026;-88
2023/10/26 01:36:20;;;;;;;0.50;0.40;;;11.20;99.90;;;;;;5014723;28;20104;-88
2023/10/26 01:38:45;;;;;;;0.53;0.40;;;11.10;99.90;;;;;;5017755;28;20025;-89
2023/10/26 01:48:27;;;;;;;1.63;0.50;;;10.90;99.90;;;;;;5497526;22;20057;-89
2023/10/26 02:17:37;;;;;;;2.43;0.73;;;10.40;99.90;;;;;;5710153;22;20057;-89
2023/10/26 02:23:12;;;;;;;1.00;0.70;;;10.30;99.90;;;;;;5845591;22;20515;-89
2023/10/26 02:33:16;;;;;;;0.63;0.60;;;10.20;99.90;;;;;;5197801;22;20049;-89
2023/10/26 02:35:42;;;;;;;0.80;0.63;;;10.10;99.90;;;;;;5213524;23;20041;-89
2023/10/26 02:38:08;;;;;;;1.90;0.77;;;10.10;99.90;;;;;;5044793;28;20052;-89
2023/10/26 02:40:39;;;;;;;0.82;0.55;;;10.10;99.90;;;;;;5039031;28;20025;-89
2023/10/26 02:47:59;;;;;;;1.40;0.50;;;9.90;99.90;;;;;;5597480;22;20381;-89
2023/10/26 02:52:58;;;;;;;2.77;0.80;;;9.80;99.90;;;;;;6148685;22;20306;-89
2023/10/26 02:57:50;;;;;;;0.73;0.60;;;9.70;99.90;;;;;;5151202;22;20462;-88
2023/10/26 03:00:18;;;;;;;0.70;0.70;;;9.60;99.90;;;;;;5050134;28;20021;-88
2023/10/26 03:02:46;;;;;;;1.03;0.57;;;9.60;99.90;;;;;;5042581;28;20105;-89
2023/10/26 03:05:12;;;;;;;2.27;0.70;;;9.50;99.90;;;;;;5049514;28;20033;-89
2023/10/26 03:07:37;;;;;;;2.97;0.73;;;9.50;99.90;;;;;;5052533;28;20037;-89
2023/10/26 03:10:05;;;;;;;1.80;0.63;;;9.40;99.90;;;;;;5058649;28;20476;-89
2023/10/26 03:12:30;;;;;;;1.37;0.60;;;9.40;99.90;;;;;;5061118;28;20027;-89
2023/10/26 03:14:56;;;;;;;1.40;0.90;;;9.30;99.90;;;;;;5043625;28;20055;-88
2023/10/26 03:17:22;;;;;;;0.70;0.50;;;9.20;99.90;;;;;;5035065;28;20063;-88
2023/10/26 03:19:47;;;;;;;1.10;0.60;;;9.10;99.90;;;;;;5047257;28;20468;-89
2023/10/26 03:22:13;;;;;;;1.50;0.70;;;9.10;99.90;;;;;;5037122;28;20028;-88
2023/10/26 03:24:39;;;;;;;1.47;0.80;;;9.10;99.90;;;;;;5033816;28;20030;-91
2023/10/26 03:27:05;;;;;;;1.00;0.60;;;9.00;99.90;;;;;;5024391;28;20017;-89
2023/10/26 03:29:31;;;;;;;2.13;0.63;;;8.90;99.90;;;;;;5046630;28;20310;-88
2023/10/26 03:31:57;;;;;;;1.80;0.70;;;8.90;99.90;;;;;;5040160;28;20116;-89
2023/10/26 03:34:23;;;;;;;1.90;0.70;;;8.80;99.90;;;;;;5033177;28;20033;-89
2023/10/26 03:36:49;;;;;;;3.23;0.70;;;8.80;99.90;;;;;;5035130;28;20068;-89
2023/10/26 03:39:14;;;;;;;0.83;0.70;;;8.70;99.90;;;;;;5033484;28;20459;-93
2023/10/26 03:41:40;;;;;;;1.63;0.77;;;8.70;99.90;;;;;;5043738;28;20025;-89
2023/10/26 03:44:09;;;;;;;0.90;0.80;;;8.70;99.90;;;;;;5332022;22;20072;-89
2023/10/26 03:46:35;;;;;;;0.40;0.40;;;8.60;99.90;;;;;;5043011;28;20044;-89
2023/10/26 03:49:02;;;;;;;1.20;0.80;;;8.60;99.90;;;;;;5033274;28;20108;-89
2023/10/26 03:51:28;;;;;;;2.17;0.70;;;8.50;99.90;;;;;;5022110;28;20120;-89
2023/10/26 03:53:56;;;;;;;2.90;0.80;;;8.50;99.90;;;;;;5035351;28;20072;-88
2023/10/26 03:56:21;;;;;;;1.27;0.77;;;8.50;99.90;;;;;;5039824;28;20396;-89
2023/10/26 03:58:47;;;;;;;9.07;2.60;;;8.40;99.90;;;;;;5036692;28;20032;-89
2023/10/26 04:01:14;;;;;;;0.93;0.77;;;8.40;99.90;;;;;;5050093;28;20112;-88
2023/10/26 04:03:39;;;;;;;1.17;0.90;;;8.40;99.90;;;;;;5044919;28;20028;-88
2023/10/26 04:06:05;;;;;;;1.80;0.90;;;8.30;99.90;;;;;;5034082;28;20033;-89
2023/10/26 04:08:30;;;;;;;1.10;0.80;;;8.30;99.90;;;;;;5045663;28;20037;-88
2023/10/26 04:10:56;;;;;;;0.80;0.67;;;8.30;99.90;;;;;;5036853;28;20116;-88
2023/10/26 04:13:22;;;;;;;1.70;0.90;;;8.30;99.90;;;;;;5040256;28;20021;-89
2023/10/26 04:15:50;;;;;;;1.07;0.70;;;8.30;99.90;;;;;;5044023;28;20033;-89
2023/10/26 04:18:17;;;;;;;1.27;0.70;;;8.20;99.90;;;;;;5034825;28;20673;-89
2023/10/26 04:25:49;;;;;;;5.87;3.57;;;8.10;99.90;;;;;;5177574;22;20056;-91
2023/10/26 04:42:07;;;;;;;6.20;3.00;;;7.90;99.90;;;;;;6013894;23;20021;-88
2023/10/26 04:47:05;;;;;;;2.47;1.47;;;7.80;99.90;;;;;;5445884;22;20133;-89
2023/10/26 04:49:33;;;;;;;4.03;1.67;;;7.80;99.90;;;;;;4996141;28;20025;-88
2023/10/26 04:51:59;;;;;;;3.00;1.77;;;7.80;99.90;;;;;;5007051;28;20057;-89
2023/10/26 05:02:07;;;;;;;2.23;1.20;;;7.80;99.90;;;;;;5048964;23;20058;-88
2023/10/26 05:04:33;;;;;;;3.27;1.50;;;7.80;99.90;;;;;;4974680;28;20041;-95
2023/10/26 05:06:59;;;;;;;4.50;1.30;;;7.80;99.90;;;;;;4969139;28;20041;-87
2023/10/26 05:09:24;;;;;;;3.10;1.30;;;7.90;99.90;;;;;;4970561;28;20109;-90
2023/10/26 05:11:50;;;;;;;1.57;1.10;;;7.80;99.90;;;;;;4969088;28;20054;-87
2023/10/26 05:14:15;;;;;;;2.67;1.70;;;7.90;99.90;;;;;;4968695;28;20041;-86
2023/10/26 05:16:41;;;;;;;3.00;1.83;;;7.90;99.90;;;;;;4968014;28;20046;-89
2023/10/26 05:19:07;;;;;;;3.73;1.50;;;7.90;99.90;;;;;;4965123;28;20026;-87
2023/10/26 05:21:32;;;;;;;4.20;1.80;;;7.90;99.90;;;;;;4968153;28;20035;-82
2023/10/26 05:23:58;;;;;;;3.97;2.40;;;7.90;99.90;;;;;;4969093;28;20049;-83
2023/10/26 05:26:23;;;;;;;4.20;2.53;;;7.90;99.90;;;;;;4969052;28;20102;-82
2023/10/26 05:28:49;;;;;;;4.37;2.53;;;8.00;99.90;;;;;;4969080;28;20031;-83
2023/10/26 05:31:14;;;;;;;4.57;1.90;;;8.00;99.90;;;;;;4969392;28;20018;-83
2023/10/26 05:33:40;;;;;;;2.27;1.40;;;8.00;99.90;;;;;;4969591;28;20018;-83
2023/10/26 05:36:07;;;;;;;3.33;1.60;;;8.00;99.90;;;;;;4966842;28;20030;-83
2023/10/26 05:38:32;;;;;;;5.60;1.30;;;8.00;99.90;;;;;;4968523;28;20441;-80
2023/10/26 05:40:58;;;;;;;2.47;1.23;;;8.10;99.90;;;;;;4968941;28;20113;-83
2023/10/26 05:43:23;;;;;;;1.77;1.10;;;8.10;99.90;;;;;;4968681;28;20056;-83
2023/10/26 05:45:49;;;;;;;2.60;1.20;;;8.20;99.90;;;;;;4967292;28;20502;-83
2023/10/26 05:48:16;;;;;;;2.70;1.43;;;8.20;99.90;;;;;;4969400;28;20034;-83
2023/10/26 05:50:42;;;;;;;2.70;1.20;;;8.20;99.90;;;;;;4966076;28;20648;-83
2023/10/26 05:53:09;;;;;;;2.10;1.13;;;8.30;99.90;;;;;;4962745;28;20027;-83
2023/10/26 05:55:35;;;;;;;4.97;1.27;;;8.40;99.90;;;;;;4962109;28;20031;-84
2023/10/26 05:58:01;;;;;;;5.07;1.70;;;8.50;99.90;;;;;;4964250;28;20042;-82
2023/10/26 06:00:26;;;;;;;3.50;1.50;;;8.50;99.90;;;;;;4967530;28;20600;-83
2023/10/26 06:02:52;;;;;;;3.87;1.53;;;8.70;99.90;;;;;;4971570;28;20042;-82
2023/10/26 06:05:18;;;;;;;2.93;1.50;;;8.70;99.90;;;;;;4984254;28;20361;-82
2023/10/26 06:07:43;;;;;;;2.60;1.37;;;8.90;99.90;;;;;;4990530;28;20228;-83
2023/10/26 06:10:10;;;;;;;3.30;1.10;;;8.90;99.90;;;;;;4976287;28;20027;-84
2023/10/26 06:12:36;;;;;;;2.33;0.90;;;9.00;99.90;;;;;;4960532;28;20030;-84
2023/10/26 06:15:02;;;;;;;1.67;0.87;;;9.10;99.90;;;;;;4957767;28;20022;-83
2023/10/26 06:17:27;;;;;;;2.00;1.07;;;9.10;99.90;;;;;;4958491;28;20116;-84
2023/10/26 06:19:53;;;;;;;1.07;0.70;;;9.20;99.90;;;;;;4958797;28;20406;-83
2023/10/26 06:22:18;;;;;;;1.50;0.80;;;9.30;99.90;;;;;;4958986;28;21083;-84
2023/10/26 06:24:44;;;;;;;2.17;1.10;;;9.30;99.90;;;;;;4962705;28;20030;-85
2023/10/26 06:27:11;;;;;;;2.50;0.80;;;9.50;99.90;;;;;;4965969;28;20050;-84
2023/10/26 06:29:36;;;;;;;0.97;0.67;;;9.50;99.90;;;;;;4965954;28;20351;-83
2023/10/26 06:32:02;;;;;;;3.63;1.30;;;9.50;99.90;;;;;;4964871;28;20031;-84
2023/10/26 06:34:29;;;;;;;2.47;0.90;;;9.60;99.90;;;;;;4964216;28;20030;-84
2023/10/26 06:36:54;;;;;;;2.23;0.90;;;9.60;99.90;;;;;;4965100;28;20074;-87
2023/10/26 06:39:20;;;;;;;2.13;0.93;;;9.70;99.90;;;;;;4964838;28;20015;-84
2023/10/26 06:41:45;;;;;;;1.73;0.90;;;9.70;99.90;;;;;;4964693;28;20520;-84
2023/10/26 06:44:11;;;;;;;2.47;1.17;;;9.80;99.90;;;;;;4964538;28;20815;-84
2023/10/26 06:46:36;;;;;;;3.00;1.07;;;9.80;99.90;;;;;;4964317;28;20019;-83
2023/10/26 06:49:02;;;;;;;2.23;1.03;;;9.80;99.90;;;;;;4965129;28;20520;-84
2023/10/26 06:51:29;;;;;;;1.13;1.00;;;9.90;99.90;;;;;;4966010;28;20031;-83
2023/10/26 06:53:55;;;;;;;1.70;1.03;;;9.90;99.90;;;;;;4966018;28;20026;-84
2023/10/26 06:56:21;;;;;;;0.80;0.80;;;9.90;99.90;;;;;;4965905;28;20022;-84
2023/10/26 06:58:47;;;;;;;1.80;0.90;;;10.00;99.90;;;;;;4961557;28;20161;-83
2023/10/26 07:01:12;;;;;;;2.73;1.03;;;10.00;99.90;;;;;;4963371;28;20225;-84
2023/10/26 07:03:38;;;;;;;2.30;1.20;;;10.00;99.90;;;;;;4963317;28;20026;-83
2023/10/26 07:06:04;;;;;;;2.53;1.23;;;10.00;99.90;;;;;;4964128;28;20053;-84
2023/10/26 07:08:33;;;;;;;2.97;1.10;;;10.00;99.90;;;;;;4963853;28;20524;-84
2023/10/26 07:10:59;;;;;;;2.50;1.47;;;10.00;99.90;;;;;;4962469;28;20109;-84
2023/10/26 07:13:26;;;;;;;3.07;1.13;;;10.10;99.90;;;;;;4963473;28;20029;-83
2023/10/26 07:15:51;;;;;;;1.50;0.73;;;10.10;99.90;;;;;;4962449;28;20026;-84
2023/10/26 07:18:18;;;;;;;0.97;0.70;;;10.10;99.90;;;;;;4962608;28;20073;-84
2023/10/26 07:20:44;;;;;;;4.55;1.38;;;10.20;99.90;;;;;;4961848;28;20073;-85
2023/10/26 07:23:10;;;;;;;3.03;1.80;;;10.10;99.90;;;;;;4961703;28;20018;-85
2023/10/26 07:25:35;;;;;;;2.58;1.40;;;10.20;99.90;;;;;;4963458;28;20061;-84
2023/10/26 07:28:02;;;;;;;2.53;1.17;;;10.20;99.90;;;;;;4963259;28;20039;-84
2023/10/26 07:30:27;;;;;;;2.67;1.10;;;10.30;99.90;;;;;;4963924;28;20127;-84
2023/10/26 07:32:53;;;;;;;1.75;1.00;;;10.30;99.90;;;;;;4962133;28;20022;-84
2023/10/26 07:35:18;;;;;;;1.77;0.90;;;10.40;99.90;;;;;;4962776;28;20208;-83
2023/10/26 07:37:44;;;;;;;2.03;1.10;;;10.50;99.90;;;;;;4961523;28;20490;-85
2023/10/26 07:40:10;;;;;;;0.90;0.70;;;10.60;99.90;;;;;;4962457;28;20490;-84
2023/10/26 07:42:36;;;;;;;1.92;0.80;;;10.60;99.90;;;;;;4962767;28;20027;-84
2023/10/26 07:45:02;;;;;;;1.50;1.00;;;10.70;99.90;;;;;;4961688;28;20086;-85
2023/10/26 07:47:27;;;;;;;1.85;0.90;;;10.70;99.90;;;;;;4964012;28;20037;-84
2023/10/26 07:49:53;;;;;;;3.90;0.70;;;10.80;99.90;;;;;;4963079;28;20137;-85
2023/10/26 07:52:18;;;;;;;3.42;1.02;;;10.90;99.90;;;;;;4964010;28;20035;-85
2023/10/26 07:54:44;;;;;;;1.27;0.90;;;11.00;99.90;;;;;;4962910;28;20480;-85
2023/10/26 07:57:10;;;;;;;2.83;0.88;;;11.00;99.90;;;;;;4963925;28;20041;-85
2023/10/26 07:59:35;;;;;;;0.80;0.70;;;11.00;99.90;;;;;;4962813;28;20247;-84
2023/10/26 08:02:01;;;;;;;1.77;0.80;;;11.10;99.90;;;;;;4963110;28;21309;-83
2023/10/26 08:04:29;;;;;;;1.50;0.70;;;11.10;99.90;;;;;;4961234;28;20452;-85
2023/10/26 08:06:55;;;;;;;1.55;0.70;;;11.20;99.90;;;;;;4960189;28;20430;-85
2023/10/26 08:09:20;;;;;;;1.38;0.50;;;11.20;99.90;;;;;;4962752;28;20066;-86
2023/10/26 08:11:46;;;;;;;1.65;0.75;;;11.20;99.90;;;;;;4963497;28;20030;-85
2023/10/26 08:14:12;;;;;;;0.95;0.68;;;11.30;99.90;;;;;;4963534;28;20030;-85
2023/10/26 08:16:39;;;;;;;0.70;0.68;;;11.40;99.90;;;;;;4962463;28;20026;-84
2023/10/26 08:19:04;;;;;;;1.23;0.80;;;11.40;99.90;;;;;;4964434;28;20037;-85
2023/10/26 08:21:30;;;;;;;1.10;0.70;;;11.40;99.90;;;;;;4963469;28;20031;-86
2023/10/26 08:23:56;;;;;;;1.58;0.70;;;11.50;99.90;;;;;;4964587;28;20023;-84
2023/10/26 08:26:21;;;;;;;2.65;0.70;;;11.40;99.90;;;;;;4965589;28;20980;-83
2023/10/26 08:28:47;;;;;;;1.17;0.65;;;11.50;99.90;;;;;;4964656;28;20505;-85
2023/10/26 08:31:13;;;;;;;1.95;0.60;;;11.40;99.90;;;;;;4963387;28;20031;-84
2023/10/26 08:33:39;;;;;;;0.65;0.60;;;11.40;99.90;;;;;;4963824;28;20026;-86
2023/10/26 08:36:05;;;;;;;1.20;0.70;;;11.40;99.90;;;;;;4961989;28;20039;-85
2023/10/26 08:38:32;;;;;;;1.00;0.80;;;11.40;99.90;;;;;;4963903;28;20043;-84
2023/10/26 08:40:58;;;;;;;1.70;0.88;;;11.40;99.90;;;;;;4966869;28;20026;-84
2023/10/26 08:43:23;;;;;;;0.90;0.73;;;11.40;99.90;;;;;;4967999;28;20113;-86
2023/10/26 08:45:51;;;;;;;1.42;0.80;;;11.40;99.90;;;;;;4967947;28;20045;-84
2023/10/26 08:48:18;;;;;;;2.80;0.90;;;11.40;99.90;;;;;;4966862;28;20104;-83
2023/10/26 08:50:48;;;;;;;1.67;0.70;;;11.40;99.90;;;;;;4970120;28;20023;-83
2023/10/26 08:53:14;;;;;;;2.67;0.70;;;11.40;99.90;;;;;;4973375;28;20023;-85
2023/10/26 08:55:41;;;;;;;1.77;0.80;;;11.40;99.90;;;;;;4975741;28;20482;-85
2023/10/26 08:58:09;;;;;;;1.15;0.60;;;11.30;99.90;;;;;;4986533;28;20129;-82
2023/10/26 09:00:41;;;;;;;1.35;0.63;;;11.30;99.90;;;;;;5000667;28;20025;-81
2023/10/26 09:03:07;;;;;;;1.23;0.80;;;11.40;99.90;;;;;;5004788;28;20019;-81
2023/10/26 09:05:33;;;;;;;6.53;0.90;;;11.40;99.90;;;;;;4970332;28;20026;-86
2023/10/26 09:08:16;;;;;;;1.25;0.98;;;11.50;99.90;;;;;;4967592;28;20041;-85
2023/10/26 09:10:42;;;;;;;1.63;0.80;;;11.50;99.90;;;;;;4967761;28;20034;-80
2023/10/26 09:13:08;;;;;;;1.30;0.60;;;11.60;99.90;;;;;;4966116;28;20054;-83
2023/10/26 09:15:48;;;;;;;2.53;0.63;;;11.70;99.90;;;;;;4953165;28;20031;-85
2023/10/26 09:18:17;;;;;;;1.27;0.75;;;11.70;99.90;;;;;;4960232;28;20899;-84
2023/10/26 09:20:59;;;;;;;0.65;0.60;;;11.70;99.90;;;;;;4959404;28;20038;-83
2023/10/26 09:23:34;;;;;;;0.90;0.73;;;11.70;99.90;;;;;;4959598;28;20098;-83
2023/10/26 09:26:03;;;;;;;1.60;0.90;;;11.70;99.90;;;;;;4939441;28;20041;-82
2023/10/26 09:28:29;;;;;;;1.65;0.90;;;11.70;99.90;;;;;;4959803;28;20452;-84
2023/10/26 09:31:02;;;;;;;1.52;0.80;;;11.70;99.90;;;;;;4959995;28;20079;-83
2023/10/26 09:33:27;;;;;;;1.20;0.80;;;11.70;99.90;;;;;;4959904;28;20030;-83
2023/10/26 09:35:53;;;;;;;0.85;0.52;;;11.60;99.90;;;;;;4957855;28;20039;-82
2023/10/26 09:38:39;;;;;;;0.70;0.60;;;11.50;99.90;;;;;;4959029;28;20035;-83
2023/10/26 09:41:07;;;;;;;1.25;0.70;;;11.40;99.90;;;;;;4961931;28;20042;-80
2023/10/26 09:43:33;;;;;;;1.92;0.90;;;11.40;99.90;;;;;;4961420;28;21007;-79
2023/10/26 09:45:59;;;;;;;3.33;0.90;;;11.30;99.90;;;;;;4955647;28;20121;-81
2023/10/26 09:48:26;;;;;;;6.25;1.10;;;11.30;99.90;;;;;;4968130;28;20109;-81
2023/10/26 09:50:52;;;;;;;2.75;1.23;;;11.20;99.90;;;;;;4967593;28;20219;-79
2023/10/26 09:53:20;;;;;;;2.15;1.20;;;11.20;99.90;;;;;;4968429;28;20031;-82
2023/10/26 09:55:48;;;;;;;1.55;0.82;;;11.10;99.90;;;;;;4968088;28;20037;-82
2023/10/26 09:58:15;;;;;;;2.65;0.85;;;11.10;99.90;;;;;;4969053;28;20031;-83
2023/10/26 10:00:41;;;;;;;2.15;1.00;;;11.10;99.90;;;;;;4965581;28;20026;-83
2023/10/26 10:03:13;;;;;;;0.80;0.65;;;11.10;99.90;;;;;;4966424;28;20037;-82
2023/10/26 10:05:40;;;;;;;2.80;0.85;;;11.10;99.90;;;;;;4954006;28;20547;-81
2023/10/26 10:08:06;;;;;;;1.95;0.85;;;11.10;99.90;;;;;;4958828;28;20146;-82
2023/10/26 10:10:33;;;;;;;2.13;0.82;;;11.20;99.90;;;;;;4959740;28;20026;-83
2023/10/26 10:12:59;;;;;;;2.22;1.20;;;11.20;99.90;;;;;;4960156;28;20062;-83
2023/10/26 10:15:39;;;;;;;4.65;1.15;;;11.20;99.90;;;;;;4957229;28;20114;-82
2023/10/26 10:18:06;;;;;;;2.70;1.30;;;11.10;99.90;;;;;;4957077;28;20114;-82
2023/10/26 10:20:36;;;;;;;3.38;1.30;;;11.20;99.90;;;;;;4959480;28;20023;-83
2023/10/26 10:23:03;;;;;;;2.85;1.15;;;11.20;99.90;;;;;;4959739;28;20059;-82
2023/10/26 10:25:50;;;;;;;3.30;1.52;;;11.20;99.90;;;;;;4959830;28;20027;-83
2023/10/26 10:28:20;;;;;;;2.08;1.10;;;11.20;99.90;;;;;;4965154;28;20060;-85
2023/10/26 10:30:51;;;;;;;2.50;1.20;;;11.20;99.90;;;;;;4964096;28;20029;-83
2023/10/26 10:33:23;;;;;;;1.60;1.00;;;11.20;99.90;;;;;;4963929;28;20035;-83
2023/10/26 10:35:51;;;;;;;2.97;1.00;;;11.30;99.90;;;;;;4964346;28;21605;-83
2023/10/26 10:38:19;;;;;;;2.42;1.10;;;11.20;99.90;;;;;;4965062;28;20515;-83
2023/10/26 10:40:53;;;;;;;2.17;1.50;;;11.20;99.90;;;;;;4965990;28;20031;-82
2023/10/26 10:43:32;;;;;;;1.27;0.90;;;11.20;99.90;;;;;;4966087;28;20115;-83
2023/10/26 10:46:13;;;;;;;3.15;1.10;;;11.20;99.90;;;;;;4961799;28;20066;-83
2023/10/26 10:48:57;;;;;;;1.75;1.20;;;11.20;99.90;;;;;;4966775;28;20542;-84
2023/10/26 10:51:31;;;;;;;3.33;0.80;;;11.20;99.90;;;;;;4966257;28;20035;-83
2023/10/26 10:53:56;;;;;;;3.40;1.08;;;11.20;99.90;;;;;;4964761;28;20262;-83
2023/10/26 10:56:25;;;;;;;1.50;0.90;;;11.20;99.90;;;;;;4962373;28;20034;-84
2023/10/26 10:58:52;;;;;;;2.60;1.60;;;11.20;99.90;;;;;;4964214;28;20031;-76
2023/10/26 11:01:21;;;;;;;2.22;1.40;;;11.30;99.90;;;;;;4963076;28;20037;-83
2023/10/26 11:03:47;;;;;;;2.38;1.42;;;11.30;99.90;;;;;;4966034;28;20045;-83
2023/10/26 11:06:17;;;;;;;2.85;1.55;;;11.40;99.90;;;;;;4964413;28;20034;-84
2023/10/26 11:08:43;;;;;;;2.60;1.00;;;11.40;99.90;;;;;;4963728;28;21461;-83
2023/10/26 11:11:08;;;;;;;2.50;1.10;;;11.50;99.90;;;;;;4956007;28;20205;-84
2023/10/26 11:13:34;;;;;;;1.95;1.10;;;11.50;99.90;;;;;;4956674;28;20162;-84
2023/10/26 11:15:59;;;;;;;2.55;1.30;;;11.60;99.90;;;;;;4957544;28;20673;-84
2023/10/26 11:18:26;;;;;;;2.47;1.55;;;11.70;99.90;;;;;;4962609;28;20172;-84
2023/10/26 11:20:51;;;;;;;2.83;1.48;;;11.70;99.90;;;;;;4962569;28;20069;-84
2023/10/26 11:23:22;;;;;;;2.92;1.48;;;11.80;99.90;;;;;;4964598;28;20121;-85
2023/10/26 11:25:47;;;;;;;3.50;1.40;;;11.90;99.90;;;;;;4967367;28;20494;-84
2023/10/26 11:28:13;;;;;;;3.33;1.60;;;12.10;99.90;;;;;;4967980;28;20037;-88
2023/10/26 11:30:53;;;;;;;9.10;2.03;;;12.20;99.90;;;;;;4969173;28;20108;-89
2023/10/26 11:33:34;;;;;;;7.90;1.70;;;12.30;99.90;;;;;;4971139;28;20037;-81
2023/10/26 11:36:00;;;;;;;2.20;1.20;;;12.40;99.90;;;;;;4967583;28;20118;-86
2023/10/26 11:38:26;;;;;;;1.90;1.15;;;12.60;99.90;;;;;;4967457;28;20038;-88
2023/10/26 11:40:52;;;;;;;4.85;1.10;;;12.70;99.90;;;;;;4968877;28;20034;-87
2023/10/26 11:43:33;;;;;;;2.75;0.98;;;12.80;99.90;;;;;;4972098;28;20022;-89
2023/10/26 11:45:59;;;;;;;2.65;1.02;;;13.10;99.90;;;;;;4949833;28;20292;-88
2023/10/26 11:48:31;;;;;;;2.58;0.93;;;13.20;99.90;;;;;;4970204;28;20375;-88
2023/10/26 11:50:58;;;;;;;2.17;0.80;;;13.30;99.90;;;;;;4975569;28;20070;-87
2023/10/26 11:53:26;;;;;;;1.33;0.90;;;13.30;99.90;;;;;;4986855;28;20006;-90
2023/10/26 11:55:52;;;;;;;2.92;0.93;;;13.40;99.90;;;;;;5004452;28;20022;-86
2023/10/26 11:58:18;;;;;;;2.63;0.80;;;13.50;99.90;;;;;;4995192;28;20038;-84
2023/10/26 12:00:44;;;;;;;2.08;1.10;;;13.60;99.90;;;;;;4968126;28;20035;-85
2023/10/26 12:03:10;;;;;;;3.58;1.20;;;13.70;99.90;;;;;;4964994;28;20030;-85
2023/10/26 12:05:36;;;;;;;3.00;1.00;;;13.80;99.90;;;;;;4964355;28;20109;-82
2023/10/26 12:08:02;;;;;;;1.50;0.90;;;13.90;99.90;;;;;;4965587;28;20088;-84
2023/10/26 12:10:28;;;;;;;1.85;0.80;;;13.80;99.90;;;;;;4964258;28;20019;-83
2023/10/26 12:12:57;;;;;;;0.73;0.70;;;13.90;99.90;;;;;;4965846;28;20038;-82
2023/10/26 12:15:25;;;;;;;2.38;1.00;;;13.90;99.90;;;;;;4969491;28;20023;-82
2023/10/26 12:17:50;;;;;;;1.90;0.98;;;13.90;99.90;;;;;;4969343;28;20082;-82
2023/10/26 12:20:17;;;;;;;3.17;1.48;;;13.90;99.90;;;;;;4968867;28;20057;-82
2023/10/26 12:22:42;;;;;;;3.72;1.30;;;14.00;99.90;;;;;;4970314;28;20061;-81
2023/10/26 12:25:10;;;;;;;2.35;1.05;;;13.90;99.90;;;;;;4969748;28;20117;-82
2023/10/26 12:27:36;;;;;;;2.80;1.00;;;14.00;99.90;;;;;;4968430;28;20049;-82
2023/10/26 12:30:02;;;;;;;2.63;0.98;;;14.00;99.90;;;;;;4970571;28;20070;-81
2023/10/26 12:32:30;;;;;;;2.05;1.05;;;14.20;99.90;;;;;;4971313;28;20060;-81
2023/10/26 12:34:55;;;;;;;3.15;1.10;;;14.20;99.90;;;;;;4968658;28;20039;-82
2023/10/26 12:37:21;;;;;;;2.00;1.00;;;14.30;99.90;;;;;;4970171;28;20042;-81
2023/10/26 12:39:47;;;;;;;1.10;0.80;;;14.40;99.90;;;;;;4971162;28;20034;-81
2023/10/26 12:42:12;;;;;;;2.53;1.00;;;14.40;99.90;;;;;;4969252;28;20023;-83
2023/10/26 12:44:38;;;;;;;1.00;0.80;;;14.40;99.90;;;;;;4968349;28;20038;-81
2023/10/26 12:47:04;;;;;;;1.42;0.90;;;14.30;99.90;;;;;;4970451;28;20098;-82
2023/10/26 12:49:30;;;;;;;2.80;0.90;;;14.30;99.90;;;;;;4970300;28;20042;-81
2023/10/26 12:51:56;;;;;;;2.13;1.10;;;14.20;99.90;;;;;;4969529;28;20034;-80
2023/10/26 12:54:21;;;;;;;1.35;0.82;;;14.10;99.90;;;;;;4969610;28;20054;-81
2023/10/26 12:56:47;;;;;;;1.88;1.00;;;14.10;99.90;;;;;;4970360;28;20140;-81
2023/10/26 12:59:13;;;;;;;4.28;1.10;;;14.10;99.90;;;;;;4970409;28;20019;-82
2023/10/26 13:01:38;;;;;;;2.70;0.80;;;14.10;99.90;;;;;;4971753;28;20080;-82
2023/10/26 13:04:04;;;;;;;1.17;0.90;;;14.10;99.90;;;;;;4973040;28;20430;-82
2023/10/26 13:06:31;;;;;;;2.38;0.90;;;14.00;99.90;;;;;;4972419;28;21399;-81
2023/10/26 13:08:56;;;;;;;2.17;1.00;;;14.00;99.90;;;;;;4972632;28;20034;-81
2023/10/26 13:11:22;;;;;;;4.47;1.00;;;14.00;99.90;;;;;;4970850;28;20034;-81
2023/10/26 13:13:47;;;;;;;1.80;0.90;;;14.00;99.90;;;;;;4970850;28;21164;-82
2023/10/26 13:16:13;;;;;;;1.25;0.82;;;13.90;99.90;;;;;;4968454;28;20042;-82
2023/10/26 13:18:39;;;;;;;3.00;1.00;;;13.90;99.90;;;;;;4969791;28;20039;-81
2023/10/26 13:21:05;;;;;;;3.03;1.10;;;13.90;99.90;;;;;;4970197;28;20039;-84
2023/10/26 13:23:32;;;;;;;1.20;0.90;;;13.80;99.90;;;;;;4967483;28;20038;-83
2023/10/26 13:25:58;;;;;;;2.25;0.88;;;13.80;99.90;;;;;;4966893;28;20034;-81
2023/10/26 13:28:24;;;;;;;2.53;1.23;;;13.70;99.90;;;;;;4969912;28;20031;-82
2023/10/26 13:30:50;;;;;;;4.07;1.15;;;13.70;99.90;;;;;;4967233;28;20038;-82
2023/10/26 13:33:16;;;;;;;2.70;0.95;;;13.70;99.90;;;;;;4967831;28;20148;-81
2023/10/26 13:35:43;;;;;;;4.53;1.60;;;13.70;99.90;;;;;;4967894;28;20059;-79
2023/10/26 13:38:12;;;;;;;3.92;1.30;;;13.60;99.90;;;;;;4968295;28;20030;-80
2023/10/26 13:40:39;;;;;;;3.88;1.50;;;13.60;99.90;;;;;;4968438;28;20042;-81
2023/10/26 13:43:04;;;;;;;4.00;1.35;;;13.60;99.90;;;;;;4969259;28;21007;-80
2023/10/26 13:45:32;;;;;;;3.65;1.52;;;13.60;99.90;;;;;;4968367;28;20034;-80
2023/10/26 13:47:59;;;;;;;5.57;1.58;;;13.70;99.90;;;;;;4968925;28;20030;-81
2023/10/26 13:50:25;;;;;;;5.75;1.30;;;13.70;99.90;;;;;;4966058;28;20031;-81
2023/10/26 13:52:51;;;;;;;4.93;1.35;;;13.70;99.90;;;;;;4967114;28;20035;-81
2023/10/26 13:55:16;;;;;;;6.13;1.40;;;13.70;99.90;;;;;;4967351;28;20097;-81
2023/10/26 13:57:42;;;;;;;7.70;1.23;;;13.70;99.90;;;;;;4969148;28;20034;-82
2023/10/26 14:00:08;;;;;;;5.93;1.38;;;13.80;99.90;;;;;;4967493;28;20606;-82
2023/10/26 14:02:34;;;;;;;4.32;1.27;;;13.90;99.90;;;;;;4968031;28;20398;-83
2023/10/26 14:05:00;;;;;;;5.10;1.40;;;13.90;99.90;;;;;;4965904;28;20030;-82
2023/10/26 14:07:25;;;;;;;4.63;1.70;;;13.90;99.90;;;;;;4966424;28;20034;-82
2023/10/26 14:09:52;;;;;;;7.50;1.40;;;14.00;99.90;;;;;;4966954;28;20401;-83
2023/10/26 14:12:18;;;;;;;5.70;1.70;;;14.00;99.90;;;;;;4966861;28;20039;-85
2023/10/26 14:14:43;;;;;;;6.88;2.33;;;14.00;99.90;;;;;;4965193;28;20034;-86
2023/10/26 14:17:09;;;;;;;7.32;1.92;;;14.00;99.90;;;;;;4963402;28;20053;-83
2023/10/26 14:19:34;;;;;;;7.65;2.33;;;14.00;99.90;;;;;;4964217;28;20035;-84
2023/10/26 14:22:00;;;;;;;10.18;2.08;;;13.90;99.90;;;;;;4964550;28;20030;-85
2023/10/26 14:24:26;;;;;;;6.22;1.92;;;13.90;99.90;;;;;;4963718;28;20106;-85
2023/10/26 14:26:51;;;;;;;7.13;2.20;;;13.80;99.90;;;;;;4964373;28;20109;-85